Alsen, North Dakota
Current Conditions -  °F | °C
As of 4:55 PM on Thursday 27 Nov 2014 (Local Time) from KD55 Reporting Station
Overcast Overcast  
Wind Chill: -9°   Ceiling: 6500
Heat Index:   Visibility: 10mi
Dew Point:   Wind: 12mph
Humidity: 72%   Direction: 170°S
Pressure: 30.13"   Gusts: NA
Location:  48.63°N, 98.7°W
Report Text: KD55 272255Z AUTO 17010KT 10SM BKN065 OVC100 M14/M18 A3013 RMK AO2
Loading
Personal Weather Stations






























Interactive Weather Map New forecast layout! Learn more

10-Day Weather Forecast

Advertisements
Track Severe Weather on mobile